Current Conditions
Misty
Conditions



Pressure
1029.92 (hPa) - 30.41 (inHG)
Visibility

1.9 (miles) - 3.0 (km)
   Temperature
4  °C
39°F
3  °C
Dewpoint
93  %
 Humidity
   Wind Speed
9  mph
8  kts
14  km/h
4.0  m/s
   Wind Direction
 70°
East North
East
   Airport Data
EGTK
Location Oxford (Kidlington) Airport 26 mi (41.83 km)
Metar :EGTK 021120Z 07008KT 3500 BR OVC007 04/03 Q1030
Tue 2nd March 11:20 am
   Raw Metar Info
Raw METAR is the most common format in the world for the transmission of observational weather data. It is highly standardized through the International Civil Aviation Organization (ICAO), which allows it to be understood throughout most of the world.
   API Info
Data Provided by
https://www.checkwx.com/weather/EGTK
   © Info
CSS/SVG/PHP scripts were developed by weather34.com for use in the weather34 template © 2015-2021

Guide Info provided by Metar-Wikipedia